ADDS METAR Data INFO
IDs: Format: Raw Decoded Include TAF

Data at: 1514 UTC 23 Oct 2017

KETH 231456Z AUTO 29022G28KT 10SM BKN031 09/02 A2988 RMK AO2
KETH 231436Z AUTO 29020G28KT 10SM SCT035 09/02 A2988 RMK AO2
KETH 231416Z AUTO 29014G26KT 10SM CLR 09/01 A2987 RMK AO2
KETH 231401Z AUTO 29017G20KT 10SM CLR 09/02 A2987 RMK AO2
KETH 231336Z AUTO 29018G25KT 10SM CLR 10/01 A2986 RMK AO2
KETH 231316Z AUTO 29019G26KT 10SM SCT110 11/01 A2985 RMK AO2
KETH 231256Z AUTO 29018G27KT 10SM SCT110 11/02 A2984 RMK AO2
KETH 231236Z AUTO 28012G18KT 10SM CLR 11/03 A2983 RMK AO2
KETH 231216Z AUTO 27010G17KT 10SM SCT095 11/02 A2982 RMK AO2
KETH 231156Z AUTO 27012KT 10SM CLR 11/02 A2982 RMK AO2
KETH 231136Z AUTO 27011G19KT 10SM SCT085 11/03 A2981 RMK AO2
KETH 231116Z AUTO 27012G16KT 10SM BKN085 12/03 A2981 RMK AO2
KETH 231056Z AUTO 27009G17KT 10SM BKN085 12/03 A2979 RMK AO2
KETH 231036Z AUTO 27009G18KT 10SM CLR 12/04 A2979 RMK AO2
KETH 231016Z AUTO 27012G18KT 10SM CLR 12/04 A2977 RMK AO2
KETH 230956Z AUTO 27012G20KT 10SM CLR 12/04 A2976 RMK AO2
KETH 230936Z AUTO 27011G18KT 10SM CLR 13/04 A2975 RMK AO2
KETH 230916Z AUTO 27013G19KT 10SM CLR 13/04 A2975 RMK AO2
KETH 230856Z AUTO 26011G17KT 10SM CLR 14/04 A2974 RMK AO2
KETH 230836Z AUTO 25011G18KT 10SM CLR 14/05 A2974 RMK AO2
KETH 230816Z AUTO 25014G20KT 10SM CLR 16/04 A2974 RMK AO2
KETH 230756Z AUTO 25014G20KT 10SM SCT080 SCT100 16/04 A2973 RMK AO2
KETH 230736Z AUTO 26013G18KT 10SM SCT080 BKN100 17/03 A2972 RMK AO2
KETH 230716Z AUTO 24014G23KT 10SM SCT100 16/04 A2972 RMK AO2
KETH 230656Z AUTO 24014G20KT 10SM CLR 16/03 A2973 RMK AO2
KETH 230636Z AUTO 23013G18KT 10SM SCT110 15/02 A2973 RMK AO2
KETH 230616Z AUTO 21010KT 10SM SCT090 BKN110 14/02 A2973 RMK AO2
KETH 230556Z AUTO 19009KT 10SM -RA SCT100 13/02 A2973 RMK AO2
KETH 230536Z AUTO 19010G14KT 10SM SCT100 13/02 A2973 RMK AO2
KETH 230516Z AUTO 17009KT 10SM SCT070 BKN100 13/02 A2973 RMK AO2
KETH 230456Z AUTO 17011KT 10SM BKN100 13/02 A2974 RMK AO2
KETH 230436Z AUTO 16010KT 10SM SCT100 120 13/01 A2974 RMK AO2
KETH 230416Z AUTO 17008KT 10SM SCT100 13/01 A2975 RMK AO2
KETH 230356Z AUTO 16010KT 10SM OVC110 14/01 A2976 RMK AO2
KETH 230336Z AUTO 16009KT 10SM SCT075 BKN110 14/01 A2976 RMK AO2
KETH 230316Z AUTO 18007KT 130V200 10SM -RA SCT033 SCT065 BKN090 14/01 A2977 RMK AO2
KETH 230256Z AUTO 17008G11KT 10SM SCT065 BKN075 BKN090 14/00 A2977 RMK AO2
KETH 230236Z AUTO 17010KT 10SM SCT065 BKN075 BKN090 14/00 A2978 RMK AO2
KETH 230216Z AUTO 17010KT 10SM SCT065 SCT075 BKN090 14/M01 A2978 RMK AO2
KETH 230156Z AUTO 17008KT 10SM SCT090 BKN110 14/M01 A2979 RMK AO2
KETH 230136Z AUTO 17009KT 10SM SCT070 BKN090 15/M01 A2980 RMK AO2
KETH 230116Z AUTO 17009KT 10SM SCT070 OVC090 15/M01 A2980 RMK AO2
KETH 230056Z AUTO 16009KT 10SM -RA SCT070 BKN090 15/M01 A2980 RMK AO2
KETH 230036Z AUTO 16007KT 10SM SCT070 SCT090 15/M02 A2981 RMK AO2
KETH 230016Z AUTO 17008KT 10SM SCT075 SCT080 16/M02 A2981 RMK AO2
KETH 222356Z AUTO 16006KT 10SM SCT075 SCT085 16/M02 A2981 RMK AO2
KETH 222336Z AUTO 17007KT 10SM SCT090 16/M02 A2982 RMK AO2
KETH 222316Z AUTO 16007KT 10SM SCT090 16/M02 A2981 RMK AO2
KETH 222256Z AUTO 17006KT 10SM CLR 17/M03 A2981 RMK AO2
KETH 222236Z AUTO 18006KT 10SM CLR 17/M03 A2981 RMK AO2
KETH 222216Z AUTO 19008KT 10SM CLR 17/M03 A2982 RMK AO2
KETH 222156Z AUTO 20009KT 10SM CLR 17/M04 A2982 RMK AO2
KETH 222136Z AUTO 20009KT 10SM CLR 18/M05 A2983 RMK AO2
KETH 222116Z AUTO 21012KT 10SM CLR 18/M07 A2983 RMK AO2
KETH 222056Z AUTO 20012G18KT 10SM CLR 19/M07 A2984 RMK AO2
KETH 222036Z AUTO 21012G17KT 10SM CLR 18/M06 A2985 RMK AO2
KETH 222016Z AUTO 20014G22KT 10SM CLR 19/M07 A2985 RMK AO2
KETH 221956Z AUTO 22016G20KT 10SM CLR 18/M07 A2986 RMK AO2
KETH 221936Z AUTO 22016G21KT 10SM CLR 18/M06 A2987 RMK AO2
KETH 221916Z AUTO 23012G20KT 10SM CLR 18/M04 A2989 RMK AO2
KETH 221856Z AUTO 22012G20KT 10SM CLR 18/M04 A2990 RMK AO2
KETH 221836Z AUTO 22015G23KT 10SM CLR 18/M03 A2991 RMK AO2
KETH 221816Z AUTO 22016G20KT 10SM CLR 17/M03 A2992 RMK AO2
KETH 221756Z AUTO 23014G17KT 10SM CLR 17/M02 A2993 RMK AO2
KETH 221736Z AUTO 23016G21KT 10SM CLR 17/M03 A2994 RMK AO2
KETH 221716Z AUTO 23011G17KT 10SM CLR 17/M02 A2995 RMK AO2
KETH 221656Z AUTO 23011KT 10SM CLR 15/M01 A2996 RMK AO2
KETH 221636Z AUTO 22009KT 10SM CLR 14/00 A2996 RMK AO2
KETH 221616Z AUTO 23010KT 10SM CLR 12/01 A2996 RMK AO2
KETH 221556Z AUTO 23009KT 10SM CLR 12/01 A2997 RMK AO2
KETH 221536Z AUTO 24009KT 10SM CLR 11/01 A2997 RMK AO2
KETH 221516Z AUTO 24010G17KT 10SM CLR 09/01 A2996 RMK AO2
KETH 221456Z AUTO 24010KT 10SM CLR 08/02 A2996 RMK AO2
KETH 221436Z AUTO 23007KT 10SM CLR 07/01 A2996 RMK AO2
KETH 221416Z AUTO 23007KT 10SM CLR 06/01 A2997 RMK AO2
KETH 221356Z AUTO 21008KT 10SM CLR 05/01 A2996 RMK AO2
KETH 221336Z AUTO 21007KT 10SM CLR 04/00 A2997 RMK AO2
KETH 221316Z AUTO 22007KT 10SM CLR 04/00 A2997 RMK AO2
KETH 221256Z AUTO 22008KT 10SM CLR 04/00 A2996 RMK AO2
KETH 221236Z AUTO 22007KT 10SM CLR 04/00 A2995 RMK AO2
KETH 221216Z AUTO 21006KT 10SM CLR 04/01 A2993 RMK AO2
KETH 221156Z AUTO 19004KT 10SM CLR 04/01 A2993 RMK AO2
KETH 221136Z AUTO 21006KT 10SM CLR 04/01 A2992 RMK AO2
KETH 221116Z AUTO 21006KT 10SM CLR 05/01 A2992 RMK AO2
KETH 221056Z AUTO 21005KT 10SM CLR 05/01 A2992 RMK AO2
KETH 221036Z AUTO 21007KT 10SM CLR 07/02 A2991 RMK AO2
KETH 221016Z AUTO 23005KT 10SM CLR 06/02 A2991 RMK AO2
KETH 220956Z AUTO 22006KT 10SM CLR 07/02 A2991 RMK AO2
KETH 220936Z AUTO 23003KT 10SM CLR 06/02 A2989 RMK AO2
KETH 220916Z AUTO 23005KT 10SM CLR 06/02 A2989 RMK AO2
KETH 220856Z AUTO 23006KT 10SM CLR 07/02 A2989 RMK AO2
KETH 220836Z AUTO 25007KT 10SM CLR 07/02 A2989 RMK AO2
KETH 220816Z AUTO 25006KT 10SM CLR 08/02 A2989 RMK AO2
KETH 220756Z AUTO 25008KT 10SM CLR 08/02 A2989 RMK AO2
KETH 220736Z AUTO 25008KT 10SM CLR 08/03 A2989 RMK AO2
KETH 220716Z AUTO 25007KT 10SM CLR 08/03 A2988 RMK AO2
KETH 220656Z AUTO 25007KT 10SM CLR 08/03 A2987 RMK AO2
KETH 220636Z AUTO 25006KT 10SM CLR 09/03 A2986 RMK AO2
KETH 220617Z AUTO 26006KT 10SM CLR 09/03 A2985 RMK AO2
KETH 220556Z AUTO 26007KT 10SM CLR 09/03 A2985 RMK AO2
KETH 220536Z AUTO 25009KT 10SM CLR 09/03 A2985 RMK AO2
KETH 220516Z AUTO 25009KT 10SM SCT080 09/04 A2983 RMK AO2
KETH 220456Z AUTO 24009KT 10SM OVC070 10/04 A2982 RMK AO2
KETH 220436Z AUTO 25008KT 10SM OVC070 10/03 A2981 RMK AO2
KETH 220416Z AUTO 25009KT 10SM BKN070 10/03 A2981 RMK AO2
KETH 220356Z AUTO 25009KT 10SM SCT060 10/03 A2981 RMK AO2
KETH 220336Z AUTO 26009G17KT 10SM SCT060 11/03 A2982 RMK AO2
KETH 220316Z AUTO 25010G14KT 10SM OVC060 11/04 A2981 RMK AO2